createdAt,value
2019-04-01T00:02:49.525Z,24.37
2019-04-01T00:05:57.757Z,23.60
2019-04-01T00:09:06.262Z,20.40
2019-04-01T00:11:55.198Z,20.10
2019-04-01T00:15:03.832Z,24.40
2019-04-01T00:18:12.122Z,23.80
2019-04-01T00:21:01.014Z,24.73
2019-04-01T00:24:09.943Z,22.37
2019-04-01T00:27:18.312Z,24.23
2019-04-01T00:30:26.543Z,21.27
2019-04-01T00:33:34.998Z,20.13
2019-04-01T00:36:23.904Z,25.90
2019-04-01T00:39:32.316Z,22.07
2019-04-01T00:42:35.421Z,23.97
2019-04-01T00:45:38.214Z,19.03
2019-04-01T00:48:39.714Z,22.30
2019-04-01T00:51:40.691Z,23.10
2019-04-01T00:54:42.126Z,22.73
2019-04-01T00:57:43.564Z,21.40
2019-04-01T01:00:45.033Z,24.63
2019-04-01T01:03:46.269Z,23.27
2019-04-01T01:06:47.205Z,23.13
2019-04-01T01:09:48.194Z,25.23
2019-04-01T01:12:49.036Z,25.83
2019-04-01T01:15:53.530Z,25.07
2019-04-01T01:18:54.641Z,25.23
2019-04-01T01:21:55.615Z,22.83
2019-04-01T01:24:57.196Z,24.73
2019-04-01T01:27:58.823Z,24.33
2019-04-01T01:30:59.834Z,25.13
2019-04-01T01:33:48.670Z,25.23
2019-04-01T01:36:56.969Z,24.97
2019-04-01T01:40:05.247Z,30.60
2019-04-01T01:43:13.516Z,27.33
2019-04-01T01:46:21.736Z,32.97
2019-04-01T01:49:30.006Z,32.30
2019-04-01T01:52:38.297Z,25.93
2019-04-01T01:55:46.575Z,28.90
2019-04-01T01:58:54.823Z,32.17
2019-04-01T02:02:03.044Z,29.37
2019-04-01T02:05:11.372Z,28.53
2019-04-01T02:08:19.613Z,32.33
2019-04-01T02:11:27.908Z,30.93
2019-04-01T02:14:36.174Z,31.20
2019-04-01T02:17:45.573Z,32.77
2019-04-01T02:20:53.903Z,33.33
2019-04-01T02:24:02.210Z,32.70
2019-04-01T02:27:10.452Z,36.53
2019-04-01T02:30:18.707Z,34.10
2019-04-01T02:33:07.582Z,32.10
2019-04-01T02:36:15.843Z,34.87
2019-04-01T02:39:24.147Z,37.33
2019-04-01T02:42:25.664Z,38.70
2019-04-01T02:45:26.572Z,37.90
2019-04-01T02:48:27.994Z,37.13
2019-04-01T02:51:28.908Z,39.10
2019-04-01T02:54:29.957Z,38.70
2019-04-01T02:57:31.377Z,42.50
2019-04-01T03:00:33.047Z,40.50
2019-04-01T03:06:17.147Z,41.97
2019-04-01T03:09:21.301Z,40.93
2019-04-01T03:12:22.556Z,41.47
2019-04-01T03:15:24.014Z,40.90
2019-04-01T03:18:25.271Z,42.37
2019-04-01T03:21:26.769Z,44.10
2019-04-01T03:24:27.742Z,46.60
2019-04-01T03:27:28.947Z,45.73
2019-04-01T03:30:33.726Z,44.87
2019-04-01T03:33:34.946Z,47.70
2019-04-01T03:36:36.876Z,45.50
2019-04-01T03:39:41.687Z,50.83
2019-04-01T03:42:43.040Z,48.80
2019-04-01T03:45:44.509Z,50.90
2019-04-01T03:48:45.433Z,49.60
2019-04-01T03:51:47.096Z,55.73
2019-04-01T03:54:48.161Z,45.93
2019-04-01T03:57:49.726Z,52.30
2019-04-01T04:00:51.260Z,47.37
2019-04-01T04:06:34.945Z,51.07
2019-04-01T04:09:35.886Z,48.17
2019-04-01T04:15:19.718Z,49.83
2019-04-01T04:21:06.728Z,48.93
2019-04-01T04:24:08.420Z,49.53
2019-04-01T04:27:11.397Z,50.67
2019-04-01T04:30:12.821Z,52.20
2019-04-01T04:33:14.508Z,54.90
2019-04-01T04:36:15.610Z,49.40
2019-04-01T04:39:17.622Z,52.37
2019-04-01T04:42:18.553Z,55.07
2019-04-01T04:45:22.505Z,51.37
2019-04-01T04:48:24.213Z,51.47
2019-04-01T04:51:25.585Z,50.63
2019-04-01T04:54:26.620Z,55.43
2019-04-01T04:57:28.759Z,57.43
2019-04-01T05:00:30.983Z,52.83
2019-04-01T05:03:35.831Z,52.13
2019-04-01T05:06:36.879Z,53.63
2019-04-01T05:12:20.976Z,53.83
2019-04-01T05:15:22.559Z,53.97
2019-04-01T05:18:26.800Z,52.50
2019-04-01T05:21:27.947Z,54.23
2019-04-01T05:24:29.547Z,50.43
2019-04-01T05:27:31.285Z,50.77
2019-04-01T05:30:32.839Z,49.80
2019-04-01T05:34:02.054Z,49.50
2019-04-01T05:37:10.411Z,53.93
2019-04-01T05:40:18.633Z,49.37
2019-04-01T05:43:19.737Z,49.97
2019-04-01T05:46:21.164Z,49.07
2019-04-01T05:49:22.298Z,48.97
2019-04-01T05:52:23.462Z,48.53
2019-04-01T05:55:27.830Z,47.73
2019-04-01T05:58:28.741Z,49.80
2019-04-01T06:01:30.856Z,51.23
2019-04-01T06:04:32.506Z,49.50
2019-04-01T06:07:33.772Z,51.13
2019-04-01T06:10:35.211Z,52.77
2019-04-01T06:13:36.365Z,53.17
2019-04-01T06:16:37.150Z,46.37
2019-04-01T06:22:21.576Z,44.77
2019-04-01T06:25:23.125Z,48.10
2019-04-01T06:28:23.896Z,46.27
2019-04-01T06:31:24.807Z,48.27
2019-04-01T06:34:26.393Z,50.00
2019-04-01T06:37:27.215Z,47.60
2019-04-01T06:40:28.994Z,44.77
2019-04-01T06:43:30.409Z,46.47
2019-04-01T06:46:31.865Z,42.47
2019-04-01T06:49:33.879Z,41.80
2019-04-01T06:52:35.440Z,43.43
2019-04-01T06:55:36.591Z,45.50
2019-04-01T06:58:38.255Z,44.57
2019-04-01T07:01:39.145Z,44.10
2019-04-01T07:04:40.652Z,48.90
2019-04-01T07:07:43.474Z,42.07
2019-04-01T07:13:25.305Z,40.67
2019-04-01T07:16:15.708Z,48.60
2019-04-01T07:19:24.153Z,39.30
2019-04-01T07:22:32.464Z,38.40
2019-04-01T07:25:41.355Z,38.07
2019-04-01T07:28:49.718Z,40.77
2019-04-01T07:31:58.024Z,39.83
2019-04-01T07:35:06.359Z,39.30
2019-04-01T07:38:14.635Z,37.40
2019-04-01T07:41:23.004Z,40.70
2019-04-01T07:44:24.220Z,36.97
2019-04-01T07:47:25.538Z,37.70
2019-04-01T07:50:26.965Z,43.40
2019-04-01T07:53:27.967Z,35.70
2019-04-01T07:59:11.837Z,35.87
2019-04-01T08:02:13.824Z,36.43
2019-04-01T08:05:14.742Z,33.03
2019-04-01T08:08:16.369Z,32.73
2019-04-01T08:11:17.590Z,33.57
2019-04-01T08:14:19.002Z,33.77
2019-04-01T08:20:03.059Z,34.40
2019-04-01T08:23:04.753Z,38.37
2019-04-01T08:26:05.866Z,44.33
2019-04-01T08:29:07.394Z,37.10
2019-04-01T08:34:50.607Z,32.57
2019-04-01T08:37:52.070Z,33.30
2019-04-01T08:40:54.141Z,35.20
2019-04-01T08:43:55.080Z,34.13
2019-04-01T08:46:56.148Z,30.93
2019-04-01T08:49:57.307Z,30.77
2019-04-01T08:52:59.719Z,34.37
2019-04-01T08:56:01.383Z,35.03
2019-04-01T08:59:03.195Z,33.13
2019-04-01T09:02:17.080Z,35.07
2019-04-01T09:05:07.182Z,31.00
2019-04-01T09:08:08.996Z,31.80
2019-04-01T09:11:10.582Z,32.40
2019-04-01T09:14:11.411Z,32.07
2019-04-01T09:17:12.437Z,36.07
2019-04-01T09:20:14.124Z,32.87
2019-04-01T09:23:13.441Z,31.77
2019-04-01T09:26:21.772Z,33.17
2019-04-01T09:29:30.154Z,29.93
2019-04-01T09:32:38.457Z,34.77
2019-04-01T09:36:01.372Z,29.27
2019-04-01T09:38:56.830Z,30.70
2019-04-01T09:41:58.140Z,31.80
2019-04-01T09:44:59.282Z,29.70
2019-04-01T09:48:00.116Z,34.00
2019-04-01T09:51:01.108Z,32.80
2019-04-01T09:54:02.360Z,29.93
2019-04-01T09:57:16.745Z,32.37
2019-04-01T10:00:06.881Z,30.27
2019-04-01T10:03:08.397Z,29.03
2019-04-01T10:06:10.598Z,32.30
2019-04-01T10:09:12.513Z,31.20
2019-04-01T10:12:13.899Z,30.40
2019-04-01T10:15:15.197Z,32.43
2019-04-01T10:18:16.741Z,29.13
2019-04-01T10:21:18.132Z,28.47
2019-04-01T10:24:20.018Z,28.50
2019-04-01T10:27:23.918Z,30.50
2019-04-01T10:30:24.840Z,29.57
2019-04-01T10:33:25.999Z,34.67
2019-04-01T10:36:27.555Z,28.77
2019-04-01T10:39:28.756Z,32.40
2019-04-01T10:42:29.951Z,30.80
2019-04-01T10:45:30.944Z,31.50
2019-04-01T10:48:32.017Z,30.00
2019-04-01T10:51:33.748Z,30.77
2019-04-01T10:54:34.622Z,30.50
2019-04-01T10:57:36.297Z,28.70
2019-04-01T11:00:38.353Z,31.30
2019-04-01T11:03:39.914Z,30.73
2019-04-01T11:06:40.852Z,31.73
2019-04-01T11:09:42.109Z,31.23
2019-04-01T11:12:43.768Z,27.43
2019-04-01T11:15:44.936Z,28.43
2019-04-01T11:18:46.720Z,27.07
2019-04-01T11:21:47.732Z,28.97
2019-04-01T11:24:49.399Z,27.30
2019-04-01T11:27:50.937Z,26.60
2019-04-01T11:30:52.616Z,30.37
2019-04-01T11:33:54.310Z,25.90
2019-04-01T11:36:55.691Z,29.83
2019-04-01T11:39:56.658Z,29.67
2019-04-01T11:42:58.346Z,26.80
2019-04-01T11:45:59.284Z,29.10
2019-04-01T11:49:01.024Z,26.53
2019-04-01T11:52:02.642Z,34.10
2019-04-01T11:57:46.036Z,29.33
2019-04-01T12:00:47.118Z,29.07
2019-04-01T12:03:50.375Z,25.97
2019-04-01T12:06:52.073Z,25.90
2019-04-01T12:09:53.652Z,25.80
2019-04-01T12:12:55.063Z,24.77
2019-04-01T12:15:56.229Z,24.20
2019-04-01T12:18:57.764Z,26.83
2019-04-01T12:21:58.961Z,24.90
2019-04-01T12:25:01.167Z,24.60
2019-04-01T12:28:02.983Z,24.50
2019-04-01T12:31:03.873Z,24.90
2019-04-01T12:34:05.019Z,25.80
2019-04-01T12:37:06.000Z,24.57
2019-04-01T12:40:06.890Z,20.67
2019-04-01T12:43:07.976Z,26.83
2019-04-01T12:46:09.592Z,24.07
2019-04-01T12:49:11.456Z,25.80
2019-04-01T12:52:19.796Z,22.67
2019-04-01T12:55:28.039Z,22.77
2019-04-01T12:58:36.306Z,22.43
2019-04-01T13:01:44.635Z,27.20
2019-04-01T13:04:52.936Z,22.10
2019-04-01T13:08:01.209Z,25.30
2019-04-01T13:11:09.493Z,23.03
2019-04-01T13:14:17.757Z,24.37
2019-04-01T13:17:26.059Z,23.17
2019-04-01T13:20:38.142Z,25.07
2019-04-01T13:23:44.493Z,23.90
2019-04-01T13:26:52.830Z,23.55
2019-04-01T13:30:01.197Z,23.17
2019-04-01T13:33:09.538Z,20.03
2019-04-01T13:36:18.066Z,20.03
2019-04-01T13:39:26.465Z,20.20
2019-04-01T13:42:34.749Z,19.52
2019-04-01T13:45:36.365Z,20.60
2019-04-01T13:48:37.495Z,19.90
2019-04-01T13:51:39.095Z,20.82
2019-04-01T13:54:41.267Z,24.13
2019-04-01T13:57:43.002Z,21.40
2019-04-01T14:00:44.107Z,19.80
2019-04-01T14:03:46.173Z,18.37
2019-04-01T14:06:47.987Z,20.68
2019-04-01T14:09:50.744Z,20.90
2019-04-01T14:12:52.622Z,21.45
2019-04-01T14:15:54.032Z,21.87
2019-04-01T14:18:55.484Z,18.60
2019-04-01T14:21:57.039Z,18.80
2019-04-01T14:24:58.789Z,20.52
2019-04-01T14:27:59.967Z,19.30
2019-04-01T14:31:01.650Z,18.62
2019-04-01T14:34:06.263Z,17.77
2019-04-01T14:37:09.760Z,17.67
2019-04-01T14:40:13.380Z,19.62
2019-04-01T14:43:14.850Z,16.87
2019-04-01T14:46:18.085Z,16.00
2019-04-01T14:49:19.781Z,16.20
2019-04-01T14:52:32.256Z,22.75
2019-04-01T14:55:24.929Z,22.80
2019-04-01T14:58:26.778Z,18.57
2019-04-01T15:01:28.316Z,17.30
2019-04-01T15:04:29.895Z,17.00
2019-04-01T15:07:31.416Z,26.37
2019-04-01T15:10:33.723Z,25.10
2019-04-01T15:13:36.103Z,18.65
2019-04-01T15:16:38.047Z,19.32
2019-04-01T15:19:40.248Z,18.75
2019-04-01T15:22:41.768Z,17.02
2019-04-01T15:25:43.180Z,16.00
2019-04-01T15:28:46.980Z,16.10
2019-04-01T15:31:48.581Z,16.75
2019-04-01T15:34:50.067Z,17.05
2019-04-01T15:37:52.158Z,18.55
2019-04-01T15:40:57.983Z,17.23
2019-04-01T15:43:58.376Z,20.15
2019-04-01T15:46:59.983Z,22.77
2019-04-01T15:50:01.488Z,16.95
2019-04-01T15:53:03.913Z,16.00
2019-04-01T15:56:05.993Z,15.78
2019-04-01T15:58:55.452Z,16.23
2019-04-01T16:02:04.499Z,14.13
2019-04-01T16:05:13.374Z,14.78
2019-04-01T16:08:22.224Z,15.78
2019-04-01T16:11:31.153Z,16.62
2019-04-01T16:14:52.181Z,15.43
2019-04-01T16:17:53.716Z,16.48
2019-04-01T16:21:01.258Z,15.80
2019-04-01T16:24:11.174Z,16.30
2019-04-01T16:27:31.376Z,16.57
2019-04-01T16:30:29.761Z,16.30
2019-04-01T16:33:52.662Z,17.20
2019-04-01T16:36:48.115Z,16.90
2019-04-01T16:43:23.707Z,19.00
2019-04-01T16:46:32.249Z,15.80
2019-04-01T16:49:33.219Z,19.25
2019-04-01T16:52:34.462Z,17.90
2019-04-01T16:55:36.248Z,16.87
2019-04-01T16:58:25.437Z,20.07
2019-04-01T17:01:13.195Z,16.33
2019-04-01T17:04:00.862Z,16.37
2019-04-01T17:06:48.389Z,18.47
2019-04-01T17:09:36.655Z,19.80
2019-04-01T17:12:28.189Z,17.83
2019-04-01T17:15:16.220Z,20.33
2019-04-01T17:18:03.923Z,17.53
2019-04-01T17:20:52.134Z,20.63
2019-04-01T17:23:41.875Z,19.60
2019-04-01T17:26:29.544Z,20.10
2019-04-01T17:29:17.548Z,20.13
2019-04-01T17:32:05.186Z,17.83
2019-04-01T17:34:52.835Z,18.70
2019-04-01T17:37:40.412Z,21.20
2019-04-01T17:40:27.687Z,18.33
2019-04-01T17:43:18.110Z,17.03
2019-04-01T17:46:05.842Z,21.30
2019-04-01T17:48:53.483Z,17.73
2019-04-01T17:51:41.182Z,18.73
2019-04-01T17:54:28.973Z,19.63
2019-04-01T17:57:17.271Z,19.27
2019-04-01T18:00:08.182Z,16.50
2019-04-01T18:02:58.167Z,18.33
2019-04-01T18:05:45.504Z,21.30
2019-04-01T18:08:34.246Z,25.63
2019-04-01T18:11:24.021Z,21.73
2019-04-01T18:14:12.035Z,25.33
2019-04-01T18:17:00.080Z,23.13
2019-04-01T18:19:47.662Z,21.77
2019-04-01T18:22:35.279Z,20.87
2019-04-01T18:25:23.079Z,20.00
2019-04-01T18:27:52.449Z,16.87
2019-04-01T18:30:23.863Z,22.73
2019-04-01T18:32:55.270Z,19.70
2019-04-01T18:35:25.482Z,22.33
2019-04-01T18:37:58.936Z,27.77
2019-04-01T18:40:33.230Z,26.53
2019-04-01T18:43:00.425Z,22.77
2019-04-01T18:45:33.272Z,20.87
2019-04-01T18:48:03.462Z,21.73
2019-04-01T18:50:33.147Z,19.77
2019-04-01T18:53:07.372Z,20.30
2019-04-01T18:55:38.189Z,22.50
2019-04-01T18:58:08.019Z,20.43
2019-04-01T19:00:37.838Z,21.67
2019-04-01T19:03:10.449Z,30.87
2019-04-01T19:05:40.281Z,29.57
2019-04-01T19:08:09.975Z,20.13
2019-04-01T19:10:39.843Z,23.20
2019-04-01T19:13:12.375Z,20.23
2019-04-01T19:15:43.303Z,17.43
2019-04-01T19:18:18.995Z,18.57
2019-04-01T19:20:56.112Z,22.00
2019-04-01T19:23:22.499Z,22.57
2019-04-01T19:25:54.280Z,25.67
2019-04-01T19:28:26.052Z,24.90
2019-04-01T19:30:56.507Z,26.50
2019-04-01T19:33:26.278Z,20.87
2019-04-01T19:36:05.799Z,16.43
2019-04-01T19:38:35.640Z,17.57
2019-04-01T19:41:10.998Z,15.80
2019-04-01T19:43:42.053Z,17.57
2019-04-01T19:46:50.556Z,19.93
2019-04-01T19:49:04.950Z,15.00
2019-04-01T19:51:36.002Z,18.80
2019-04-01T19:54:07.173Z,18.03
2019-04-01T19:56:37.134Z,15.80
2019-04-01T19:59:08.585Z,15.35
2019-04-01T20:01:38.691Z,19.50
2019-04-01T20:04:08.343Z,16.97
2019-04-01T20:06:40.724Z,21.13
2019-04-01T20:09:10.297Z,19.10
2019-04-01T20:11:40.683Z,17.73
2019-04-01T20:14:14.253Z,17.20
2019-04-01T20:16:47.660Z,15.10
2019-04-01T20:19:21.743Z,18.40
2019-04-01T20:21:53.309Z,13.97
2019-04-01T20:24:24.717Z,15.73
2019-04-01T20:26:55.496Z,18.27
2019-04-01T20:29:29.900Z,14.20
2019-04-01T20:32:36.470Z,15.18
2019-04-01T20:35:23.613Z,18.73
2019-04-01T20:37:51.478Z,23.07
2019-04-01T20:40:24.095Z,24.33
2019-04-01T20:42:54.901Z,27.90
2019-04-01T20:49:02.004Z,22.50
2019-04-01T20:52:10.561Z,27.37
2019-04-01T20:54:54.397Z,27.53
2019-04-01T20:57:24.161Z,23.80
2019-04-01T20:59:54.041Z,24.13
2019-04-01T21:02:25.204Z,21.53
2019-04-01T21:04:56.308Z,22.77
2019-04-01T21:07:26.095Z,24.40
2019-04-01T21:09:55.670Z,23.40
2019-04-01T21:12:27.016Z,18.10
2019-04-01T21:14:56.610Z,25.07
2019-04-01T21:17:27.668Z,18.77
2019-04-01T21:19:58.443Z,15.83
2019-04-01T21:22:28.073Z,21.00
2019-04-01T21:25:02.295Z,22.53
2019-04-01T21:27:32.203Z,22.57
2019-04-01T21:30:23.015Z,17.63
2019-04-01T21:32:54.234Z,37.47
2019-04-01T21:35:44.722Z,23.90
2019-04-01T21:38:35.233Z,20.10
2019-04-01T21:41:44.082Z,20.13
2019-04-01T21:44:34.692Z,17.77
2019-04-01T21:47:25.137Z,18.07
2019-04-01T21:50:15.636Z,19.10
2019-04-01T21:53:17.028Z,19.80
2019-04-01T21:56:00.848Z,17.80
2019-04-01T22:01:26.132Z,18.17
2019-04-01T22:04:11.084Z,17.40
2019-04-01T22:06:54.180Z,16.27
2019-04-01T22:09:36.295Z,17.20
2019-04-01T22:12:18.669Z,17.23
2019-04-01T22:15:01.136Z,18.13
2019-04-01T22:17:42.924Z,17.97
2019-04-01T22:20:25.060Z,18.20
2019-04-01T22:23:08.241Z,17.93
2019-04-01T22:25:51.001Z,19.77
2019-04-01T22:28:32.810Z,20.27
2019-04-01T22:31:02.642Z,18.37
2019-04-01T22:33:51.627Z,17.20
2019-04-01T22:36:42.160Z,16.60
2019-04-01T22:39:33.008Z,17.43
2019-04-01T22:42:42.910Z,17.70
2019-04-01T22:45:33.724Z,19.80
2019-04-01T22:48:24.238Z,19.43
2019-04-01T22:51:32.929Z,18.47
2019-04-01T22:54:17.137Z,19.73
2019-04-01T22:56:59.035Z,18.40
2019-04-01T22:59:41.209Z,23.77
2019-04-01T23:02:23.463Z,18.57
2019-04-01T23:05:05.264Z,19.17
2019-04-01T23:07:47.712Z,22.37
2019-04-01T23:10:30.532Z,21.13
2019-04-01T23:13:13.074Z,22.17
2019-04-01T23:15:55.266Z,18.90
2019-04-01T23:18:38.148Z,20.23
2019-04-01T23:21:20.694Z,22.13
2019-04-01T23:24:03.142Z,19.80
2019-04-01T23:26:44.992Z,19.30
2019-04-01T23:29:27.016Z,20.07
2019-04-01T23:32:09.034Z,18.40
2019-04-01T23:37:34.501Z,19.40
2019-04-01T23:40:16.931Z,19.43
2019-04-01T23:42:59.083Z,19.77
2019-04-01T23:45:41.163Z,19.87
2019-04-01T23:48:23.726Z,22.73
2019-04-01T23:51:07.202Z,18.27
2019-04-01T23:53:49.969Z,19.17
2019-04-01T23:56:32.358Z,17.90
2019-04-01T23:59:14.715Z,18.77
